CLR weather

Cliff Hatfield Memorial Airport
Calipatria, California, United States

Public forecast

Using degrees Fahrenheit for public forecast. Weather courtesy of forecast.io.

METAR (pilot weather report)

Closest report is Imperial County Airport, 18.1 nm (33.5 km) S. Retrieved 2019/08/20 22:53 UTC (1 hour ago):

KIPL 202253Z AUTO 00000KT 10SM CLR 43/M03 A2968 RMK AO2 SLP052 T04331033

TAF (pilot weather forecast)

Closest forecast is Imperial County Airport, 18.1 nm (33.5 km) S. Retrieved 2019/08/20 18:22 UTC (6 hours ago):

TAF KIPL 201720Z 2018/2118 33005KT P6SM SKC FM210100 27015G23KT P6SM SKC FM210600 30005KT P6SM SKC FM211400 VRB04KT P6SM SKC